createdAt,value
2023-05-13T00:01:38.863Z,4.30
2023-05-13T00:04:09.029Z,4.80
2023-05-13T00:06:36.059Z,3.60
2023-05-13T00:09:03.265Z,3.70
2023-05-13T00:11:29.878Z,4.27
2023-05-13T00:13:57.350Z,4.50
2023-05-13T00:16:27.374Z,4.10
2023-05-13T00:18:55.378Z,4.20
2023-05-13T00:21:22.389Z,3.80
2023-05-13T00:23:49.390Z,4.00
2023-05-13T00:26:16.469Z,4.37
2023-05-13T00:28:45.394Z,3.67
2023-05-13T00:31:12.015Z,3.90
2023-05-13T00:33:39.340Z,4.10
2023-05-13T00:36:07.665Z,4.10
2023-05-13T00:38:34.538Z,4.27
2023-05-13T00:41:03.619Z,3.93
2023-05-13T00:43:30.670Z,4.10
2023-05-13T00:45:58.617Z,4.27
2023-05-13T00:48:25.271Z,3.70
2023-05-13T00:50:52.461Z,4.30
2023-05-13T00:53:19.006Z,3.90
2023-05-13T00:55:46.217Z,4.80
2023-05-13T00:58:13.543Z,3.90
2023-05-13T01:00:51.920Z,4.37
2023-05-13T01:03:27.559Z,4.67
2023-05-13T01:06:13.660Z,3.83
2023-05-13T01:09:06.674Z,4.33
2023-05-13T01:11:40.108Z,4.13
2023-05-13T01:14:11.691Z,4.40
2023-05-13T01:16:59.224Z,4.17
2023-05-13T01:19:47.543Z,4.27
2023-05-13T01:22:14.213Z,4.20
2023-05-13T01:24:41.361Z,4.67
2023-05-13T01:27:08.117Z,4.30
2023-05-13T01:29:36.424Z,4.73
2023-05-13T01:32:04.414Z,3.87
2023-05-13T01:34:32.094Z,4.87
2023-05-13T01:36:59.996Z,4.40
2023-05-13T01:44:25.372Z,4.90
2023-05-13T01:46:53.494Z,4.10
2023-05-13T01:49:20.555Z,4.57
2023-05-13T01:51:47.169Z,4.50
2023-05-13T01:54:13.888Z,3.90
2023-05-13T01:56:46.850Z,4.10
2023-05-13T01:59:13.422Z,4.87
2023-05-13T02:01:40.609Z,4.57
2023-05-13T02:04:07.289Z,4.60
2023-05-13T02:06:34.111Z,4.73
2023-05-13T02:09:00.700Z,4.60
2023-05-13T02:11:27.575Z,5.30
2023-05-13T02:13:56.920Z,3.60
2023-05-13T02:16:23.528Z,3.93
2023-05-13T02:18:50.315Z,4.07
2023-05-13T02:21:16.997Z,3.90
2023-05-13T02:23:43.962Z,3.83
2023-05-13T02:26:10.518Z,4.00
2023-05-13T02:28:37.310Z,4.10
2023-05-13T02:31:03.888Z,4.50
2023-05-13T02:33:30.795Z,4.20
2023-05-13T02:35:57.559Z,4.40
2023-05-13T02:38:24.107Z,3.87
2023-05-13T02:40:50.735Z,4.23
2023-05-13T02:43:17.688Z,4.27
2023-05-13T02:45:56.382Z,4.40
2023-05-13T02:48:23.172Z,4.20
2023-05-13T02:50:50.801Z,4.63
2023-05-13T02:53:17.391Z,4.03
2023-05-13T02:55:50.289Z,4.00
2023-05-13T02:58:17.347Z,4.37
2023-05-13T03:00:44.747Z,4.00
2023-05-13T03:03:11.505Z,4.93
2023-05-13T03:05:38.483Z,4.33
2023-05-13T03:08:05.080Z,4.63
2023-05-13T03:10:31.987Z,5.17
2023-05-13T03:12:58.553Z,4.37
2023-05-13T03:15:25.433Z,4.47
2023-05-13T03:17:52.118Z,3.80
2023-05-13T03:20:20.751Z,4.77
2023-05-13T03:22:47.572Z,5.13
2023-05-13T03:25:15.513Z,4.53
2023-05-13T03:27:49.970Z,5.17
2023-05-13T03:30:18.970Z,4.20
2023-05-13T03:32:52.866Z,4.77
2023-05-13T03:35:19.569Z,3.87
2023-05-13T03:37:47.177Z,4.13
2023-05-13T03:40:14.728Z,4.73
2023-05-13T03:42:41.809Z,4.77
2023-05-13T03:45:09.168Z,5.70
2023-05-13T03:47:39.100Z,4.53
2023-05-13T03:50:09.752Z,4.43
2023-05-13T03:52:41.408Z,4.80
2023-05-13T03:55:09.101Z,4.37
2023-05-13T03:57:35.671Z,4.73
2023-05-13T04:00:03.612Z,4.70
2023-05-13T04:02:41.427Z,5.00
2023-05-13T04:05:09.498Z,4.33
2023-05-13T04:07:36.202Z,4.43
2023-05-13T04:10:02.878Z,4.80
2023-05-13T04:12:30.932Z,4.23
2023-05-13T04:14:57.573Z,5.40
2023-05-13T04:17:24.550Z,4.70
2023-05-13T04:19:55.041Z,4.70
2023-05-13T04:22:22.092Z,4.97
2023-05-13T04:24:51.958Z,4.20
2023-05-13T04:27:18.725Z,4.17
2023-05-13T04:29:46.777Z,4.67
2023-05-13T04:32:21.297Z,4.17
2023-05-13T04:34:52.670Z,4.70
2023-05-13T04:37:19.927Z,4.63
2023-05-13T04:39:48.415Z,4.53
2023-05-13T04:42:16.672Z,4.50
2023-05-13T04:44:43.735Z,4.40
2023-05-13T04:47:10.569Z,4.80
2023-05-13T04:49:37.129Z,4.47
2023-05-13T04:52:04.828Z,4.60
2023-05-13T04:54:35.298Z,4.87
2023-05-13T04:57:02.771Z,4.60
2023-05-13T04:59:31.007Z,4.67
2023-05-13T05:01:58.011Z,4.40
2023-05-13T05:04:25.398Z,4.60
2023-05-13T05:06:52.199Z,4.07
2023-05-13T05:09:18.935Z,4.60
2023-05-13T05:11:47.182Z,4.63
2023-05-13T05:14:13.716Z,4.10
2023-05-13T05:16:40.391Z,4.63
2023-05-13T05:19:08.194Z,4.33
2023-05-13T05:21:37.267Z,4.03
2023-05-13T05:24:05.807Z,3.93
2023-05-13T05:26:32.433Z,3.87
2023-05-13T05:28:58.988Z,3.87
2023-05-13T05:31:27.499Z,3.40
2023-05-13T05:33:56.392Z,3.57
2023-05-13T05:36:23.132Z,3.03
2023-05-13T05:38:50.383Z,3.57
2023-05-13T05:41:17.287Z,3.40
2023-05-13T05:43:46.634Z,3.37
2023-05-13T05:46:13.373Z,3.67
2023-05-13T05:48:40.292Z,3.37
2023-05-13T05:51:07.520Z,3.27
2023-05-13T05:53:37.680Z,3.20
2023-05-13T05:56:05.600Z,2.83
2023-05-13T05:58:33.641Z,3.60
2023-05-13T06:01:01.280Z,2.47
2023-05-13T06:03:28.187Z,3.10
2023-05-13T06:05:54.849Z,3.50
2023-05-13T06:08:22.486Z,3.53
2023-05-13T06:10:51.129Z,3.50
2023-05-13T06:13:17.720Z,3.30
2023-05-13T06:15:44.269Z,2.97
2023-05-13T06:18:11.602Z,3.57
2023-05-13T06:20:38.186Z,3.00
2023-05-13T06:23:04.776Z,3.30
2023-05-13T06:25:31.331Z,3.63
2023-05-13T06:27:57.941Z,3.17
2023-05-13T06:30:25.016Z,4.20
2023-05-13T06:33:00.759Z,3.07
2023-05-13T06:35:28.020Z,3.17
2023-05-13T06:37:54.679Z,3.60
2023-05-13T06:40:21.517Z,3.60
2023-05-13T06:42:48.552Z,3.40
2023-05-13T06:45:23.325Z,3.10
2023-05-13T06:47:51.568Z,3.10
2023-05-13T06:50:18.820Z,2.93
2023-05-13T06:52:49.439Z,2.67
2023-05-13T06:55:18.734Z,3.28
2023-05-13T06:57:46.792Z,3.30
2023-05-13T07:00:15.069Z,2.92
2023-05-13T07:02:42.062Z,3.60
2023-05-13T07:05:11.412Z,2.60
2023-05-13T07:07:47.810Z,3.17
2023-05-13T07:10:14.980Z,2.70
2023-05-13T07:12:41.638Z,2.65
2023-05-13T07:15:08.612Z,2.80
2023-05-13T07:17:35.375Z,3.00
2023-05-13T07:20:02.489Z,2.90
2023-05-13T07:22:29.366Z,3.88
2023-05-13T07:24:57.079Z,2.97
2023-05-13T07:27:23.964Z,2.95
2023-05-13T07:29:50.512Z,2.80
2023-05-13T07:32:17.805Z,2.90
2023-05-13T07:34:44.476Z,2.92
2023-05-13T07:37:11.121Z,3.95
2023-05-13T07:39:37.719Z,2.53
2023-05-13T07:42:04.349Z,2.78
2023-05-13T07:44:30.986Z,3.60
2023-05-13T07:46:57.585Z,3.17
2023-05-13T07:49:24.140Z,2.90
2023-05-13T07:51:50.746Z,3.38
2023-05-13T07:54:18.246Z,3.13
2023-05-13T07:56:46.512Z,3.60
2023-05-13T07:59:13.125Z,3.10
2023-05-13T08:01:39.653Z,3.10
2023-05-13T08:04:06.431Z,3.10
2023-05-13T08:06:33.258Z,3.00
2023-05-13T08:09:00.201Z,3.53
2023-05-13T08:11:26.866Z,2.90
2023-05-13T08:13:53.436Z,3.30
2023-05-13T08:16:20.194Z,2.90
2023-05-13T08:18:46.816Z,3.30
2023-05-13T08:21:13.375Z,2.93
2023-05-13T08:23:45.339Z,3.10
2023-05-13T08:26:13.746Z,2.80
2023-05-13T08:28:41.927Z,3.00
2023-05-13T08:31:11.650Z,3.10
2023-05-13T08:33:38.359Z,3.17
2023-05-13T08:36:05.623Z,2.90
2023-05-13T08:38:33.466Z,2.90
2023-05-13T08:41:04.538Z,2.90
2023-05-13T08:43:32.796Z,3.03
2023-05-13T08:46:02.800Z,2.83
2023-05-13T08:48:30.961Z,2.87
2023-05-13T08:50:58.310Z,2.87
2023-05-13T08:53:25.468Z,2.83
2023-05-13T08:55:52.213Z,2.80
2023-05-13T08:58:20.033Z,2.60
2023-05-13T09:00:48.665Z,3.20
2023-05-13T09:03:15.509Z,3.17
2023-05-13T09:05:43.883Z,2.87
2023-05-13T09:08:10.643Z,3.03
2023-05-13T09:10:38.090Z,2.70
2023-05-13T09:13:05.782Z,2.93
2023-05-13T09:15:32.918Z,3.07
2023-05-13T09:18:06.732Z,3.40
2023-05-13T09:20:34.888Z,3.10
2023-05-13T09:23:06.459Z,3.07
2023-05-13T09:25:33.707Z,2.70
2023-05-13T09:28:05.869Z,3.10
2023-05-13T09:30:42.622Z,3.03
2023-05-13T09:33:11.795Z,2.90
2023-05-13T09:35:41.557Z,2.80
2023-05-13T09:38:29.262Z,2.70
2023-05-13T09:41:00.495Z,3.07
2023-05-13T09:43:31.473Z,2.53
2023-05-13T09:46:01.406Z,3.20
2023-05-13T09:48:29.487Z,2.73
2023-05-13T09:50:58.570Z,3.40
2023-05-13T09:53:26.343Z,2.90
2023-05-13T09:55:55.416Z,3.10
2023-05-13T09:58:23.640Z,3.13
2023-05-13T10:00:51.371Z,2.73
2023-05-13T10:03:18.014Z,3.33
2023-05-13T10:05:45.017Z,3.20
2023-05-13T10:08:14.757Z,2.90
2023-05-13T10:10:42.561Z,2.80
2023-05-13T10:13:12.818Z,2.60
2023-05-13T10:15:51.017Z,3.47
2023-05-13T10:18:19.447Z,3.40
2023-05-13T10:20:47.137Z,2.73
2023-05-13T10:23:13.813Z,3.27
2023-05-13T10:25:43.079Z,3.10
2023-05-13T10:28:10.497Z,3.37
2023-05-13T10:30:38.016Z,3.00
2023-05-13T10:33:04.656Z,3.10
2023-05-13T10:35:40.533Z,3.00
2023-05-13T10:38:43.469Z,3.70
2023-05-13T10:42:11.337Z,2.90
2023-05-13T10:44:37.942Z,2.83
2023-05-13T10:47:04.603Z,3.83
2023-05-13T10:49:35.327Z,4.10
2023-05-13T10:52:06.088Z,2.90
2023-05-13T10:54:42.035Z,3.17
2023-05-13T10:57:09.351Z,3.20
2023-05-13T10:59:37.406Z,3.23
2023-05-13T11:02:37.197Z,2.90
2023-05-13T11:05:05.175Z,3.70
2023-05-13T11:07:31.725Z,3.23
2023-05-13T11:09:59.942Z,3.20
2023-05-13T11:12:26.477Z,2.90
2023-05-13T11:14:56.096Z,2.80
2023-05-13T11:17:23.157Z,2.60
2023-05-13T11:19:51.497Z,3.60
2023-05-13T11:22:18.527Z,2.70
2023-05-13T11:24:47.329Z,2.40
2023-05-13T11:27:19.723Z,2.73
2023-05-13T11:29:55.881Z,3.00
2023-05-13T11:32:50.641Z,3.03
2023-05-13T11:35:32.287Z,2.70
2023-05-13T11:38:01.439Z,2.90
2023-05-13T11:40:31.115Z,2.70
2023-05-13T11:42:58.721Z,2.67
2023-05-13T11:45:26.956Z,3.20
2023-05-13T11:47:54.595Z,3.70
2023-05-13T11:50:22.565Z,2.67
2023-05-13T11:53:09.353Z,6.10
2023-05-13T11:55:36.459Z,2.10
2023-05-13T11:58:04.267Z,2.10
2023-05-13T12:00:32.475Z,1.80
2023-05-13T12:03:00.887Z,2.67
2023-05-13T12:05:28.241Z,2.27
2023-05-13T12:07:58.788Z,2.40
2023-05-13T12:10:26.284Z,2.23
2023-05-13T12:12:53.297Z,2.57
2023-05-13T12:15:22.105Z,2.47
2023-05-13T12:17:49.511Z,2.57
2023-05-13T12:20:21.092Z,2.67
2023-05-13T12:22:48.090Z,2.50
2023-05-13T12:25:40.284Z,2.60
2023-05-13T12:28:23.970Z,2.77
2023-05-13T12:30:56.838Z,2.20
2023-05-13T12:33:31.204Z,2.70
2023-05-13T12:36:18.639Z,2.70
2023-05-13T12:39:05.154Z,2.50
2023-05-13T12:41:35.093Z,2.73
2023-05-13T12:44:09.249Z,2.47
2023-05-13T12:46:36.714Z,2.63
2023-05-13T12:49:04.477Z,2.50
2023-05-13T12:51:31.150Z,2.40
2023-05-13T12:53:58.285Z,2.30
2023-05-13T12:56:25.707Z,3.57
2023-05-13T12:58:54.216Z,2.63
2023-05-13T13:01:21.369Z,2.20
2023-05-13T13:03:47.997Z,2.57
2023-05-13T13:06:15.412Z,2.20
2023-05-13T13:08:42.271Z,2.10
2023-05-13T13:11:10.147Z,2.50
2023-05-13T13:13:38.928Z,2.30
2023-05-13T13:16:06.426Z,2.20
2023-05-13T13:18:33.107Z,2.50
2023-05-13T13:20:59.769Z,2.00
2023-05-13T13:23:26.357Z,2.40
2023-05-13T13:25:52.964Z,2.53
2023-05-13T13:28:19.691Z,1.77
2023-05-13T13:30:47.218Z,2.30
2023-05-13T13:33:15.547Z,2.57
2023-05-13T13:35:46.946Z,2.33
2023-05-13T13:38:14.743Z,2.53
2023-05-13T13:40:42.835Z,2.20
2023-05-13T13:43:09.470Z,3.43
2023-05-13T13:45:36.638Z,2.13
2023-05-13T13:48:03.714Z,2.13
2023-05-13T13:50:30.577Z,2.33
2023-05-13T13:52:57.752Z,2.23
2023-05-13T13:55:24.655Z,1.90
2023-05-13T13:57:52.066Z,2.13
2023-05-13T14:00:19.103Z,2.20
2023-05-13T14:02:46.463Z,3.00
2023-05-13T14:05:13.734Z,2.30
2023-05-13T14:07:40.454Z,2.43
2023-05-13T14:10:08.390Z,2.40
2023-05-13T14:12:37.940Z,2.03
2023-05-13T14:15:06.633Z,3.00
2023-05-13T14:17:33.907Z,2.20
2023-05-13T14:20:01.457Z,3.07
2023-05-13T14:22:28.409Z,2.47
2023-05-13T14:24:55.311Z,2.60
2023-05-13T14:27:24.261Z,1.73
2023-05-13T14:29:51.068Z,1.97
2023-05-13T14:32:17.803Z,2.27
2023-05-13T14:34:44.612Z,1.90
2023-05-13T14:37:11.513Z,1.73
2023-05-13T14:39:38.143Z,2.50
2023-05-13T14:42:06.244Z,3.07
2023-05-13T14:44:33.155Z,1.87
2023-05-13T14:47:00.018Z,2.10
2023-05-13T14:49:27.505Z,2.03
2023-05-13T14:51:54.302Z,2.00
2023-05-13T14:54:21.975Z,2.00
2023-05-13T14:56:48.785Z,2.40
2023-05-13T14:59:16.949Z,2.13
2023-05-13T15:01:43.702Z,1.90
2023-05-13T15:04:10.912Z,2.40
2023-05-13T15:06:38.493Z,2.30
2023-05-13T15:09:06.059Z,2.27
2023-05-13T15:11:33.271Z,2.20
2023-05-13T15:14:00.002Z,2.40
2023-05-13T15:16:26.747Z,1.80
2023-05-13T15:18:53.581Z,1.93
2023-05-13T15:21:20.556Z,2.03
2023-05-13T15:23:47.232Z,2.00
2023-05-13T15:26:14.423Z,1.90
2023-05-13T15:28:41.602Z,1.90
2023-05-13T15:31:08.324Z,1.80
2023-05-13T15:33:34.940Z,1.77
2023-05-13T15:36:01.803Z,2.10
2023-05-13T15:38:28.313Z,2.30
2023-05-13T15:40:55.232Z,2.27
2023-05-13T15:43:21.868Z,2.57
2023-05-13T15:45:49.988Z,2.63
2023-05-13T15:48:17.641Z,2.13
2023-05-13T15:50:44.835Z,2.20
2023-05-13T15:53:11.481Z,2.07
2023-05-13T15:55:39.597Z,2.00
2023-05-13T15:58:06.970Z,2.30
2023-05-13T16:00:33.835Z,2.20
2023-05-13T16:03:00.722Z,1.80
2023-05-13T16:05:27.375Z,3.00
2023-05-13T16:07:54.414Z,2.40
2023-05-13T16:10:21.817Z,2.60
2023-05-13T16:12:48.813Z,2.00
2023-05-13T16:15:15.376Z,2.77
2023-05-13T16:17:41.961Z,2.00
2023-05-13T16:20:11.402Z,1.57
2023-05-13T16:22:38.983Z,1.90
2023-05-13T16:25:07.576Z,2.00
2023-05-13T16:27:35.196Z,2.30
2023-05-13T16:30:03.244Z,2.07
2023-05-13T16:32:31.188Z,1.97
2023-05-13T16:34:58.116Z,1.93
2023-05-13T16:37:24.848Z,1.80
2023-05-13T16:39:51.539Z,2.13
2023-05-13T16:42:19.581Z,1.80
2023-05-13T16:44:47.158Z,1.77
2023-05-13T16:47:13.958Z,2.10
2023-05-13T16:49:40.932Z,1.60
2023-05-13T16:52:07.662Z,2.07
2023-05-13T16:54:34.576Z,1.83
2023-05-13T16:57:01.599Z,1.70
2023-05-13T16:59:28.639Z,2.27
2023-05-13T17:01:55.865Z,1.87
2023-05-13T17:04:22.748Z,2.20
2023-05-13T17:06:49.518Z,1.90
2023-05-13T17:09:16.481Z,1.80
2023-05-13T17:11:43.473Z,2.13
2023-05-13T17:14:10.688Z,2.10
2023-05-13T17:16:38.341Z,2.87
2023-05-13T17:19:05.121Z,2.20
2023-05-13T17:21:32.667Z,2.53
2023-05-13T17:23:59.826Z,2.80
2023-05-13T17:26:27.922Z,1.90
2023-05-13T17:28:54.830Z,3.60
2023-05-13T17:31:23.316Z,1.77
2023-05-13T17:33:50.333Z,2.37
2023-05-13T17:36:17.106Z,1.83
2023-05-13T17:38:44.190Z,2.03
2023-05-13T17:41:11.114Z,1.90
2023-05-13T17:43:37.770Z,2.30
2023-05-13T17:46:04.798Z,1.83
2023-05-13T17:48:33.134Z,2.23
2023-05-13T17:51:00.121Z,2.00
2023-05-13T17:53:26.842Z,1.90
2023-05-13T17:55:53.754Z,2.13
2023-05-13T17:58:20.842Z,1.80
2023-05-13T18:00:48.809Z,2.20
2023-05-13T18:03:16.371Z,1.70
2023-05-13T18:05:43.382Z,1.97
2023-05-13T18:08:10.206Z,2.17
2023-05-13T18:10:37.409Z,2.40
2023-05-13T18:13:04.286Z,3.60
2023-05-13T18:15:31.065Z,2.03
2023-05-13T18:17:58.082Z,2.20
2023-05-13T18:20:25.106Z,2.30
2023-05-13T18:22:51.846Z,2.33
2023-05-13T18:25:18.663Z,3.00
2023-05-13T18:27:45.406Z,2.40
2023-05-13T18:30:12.628Z,2.40
2023-05-13T18:32:39.369Z,2.57
2023-05-13T18:35:06.466Z,2.60
2023-05-13T18:37:33.188Z,2.37
2023-05-13T18:40:01.757Z,2.10
2023-05-13T18:42:29.601Z,2.40
2023-05-13T18:44:56.418Z,2.77
2023-05-13T18:47:23.666Z,2.30
2023-05-13T18:49:50.394Z,2.30
2023-05-13T18:52:17.140Z,2.30
2023-05-13T18:54:43.875Z,2.40
2023-05-13T18:57:11.034Z,2.40
2023-05-13T18:59:39.940Z,2.47
2023-05-13T19:02:07.083Z,2.13
2023-05-13T19:04:34.097Z,2.37
2023-05-13T19:07:01.374Z,2.40
2023-05-13T19:09:28.311Z,2.47
2023-05-13T19:11:54.969Z,2.73
2023-05-13T19:14:21.657Z,2.37
2023-05-13T19:16:48.415Z,1.80
2023-05-13T19:19:15.193Z,2.30
2023-05-13T19:21:45.279Z,2.33
2023-05-13T19:24:12.361Z,2.13
2023-05-13T19:26:42.402Z,2.23
2023-05-13T19:29:09.661Z,2.40
2023-05-13T19:31:38.237Z,2.43
2023-05-13T19:34:05.027Z,2.00
2023-05-13T19:36:31.727Z,2.57
2023-05-13T19:38:58.704Z,2.17
2023-05-13T19:41:25.949Z,2.47
2023-05-13T19:43:52.599Z,2.83
2023-05-13T19:46:19.384Z,2.70
2023-05-13T19:48:46.463Z,3.80
2023-05-13T19:51:13.358Z,2.87
2023-05-13T19:53:42.981Z,3.17
2023-05-13T19:56:09.695Z,2.80
2023-05-13T19:58:36.718Z,2.30
2023-05-13T20:01:04.005Z,2.80
2023-05-13T20:03:31.229Z,2.70
2023-05-13T20:05:58.101Z,2.40
2023-05-13T20:08:25.167Z,3.20
2023-05-13T20:10:51.820Z,3.53
2023-05-13T20:13:18.762Z,3.10
2023-05-13T20:15:45.542Z,3.03
2023-05-13T20:18:12.488Z,3.03
2023-05-13T20:20:41.414Z,3.30
2023-05-13T20:23:08.653Z,3.00
2023-05-13T20:25:35.759Z,2.60
2023-05-13T20:28:02.460Z,2.67
2023-05-13T20:30:29.178Z,2.87
2023-05-13T20:32:55.928Z,3.30
2023-05-13T20:35:23.003Z,3.07
2023-05-13T20:37:49.945Z,2.70
2023-05-13T20:40:16.657Z,3.57
2023-05-13T20:42:43.396Z,3.27
2023-05-13T20:45:10.872Z,2.80
2023-05-13T20:47:37.586Z,3.37
2023-05-13T20:50:04.532Z,2.70
2023-05-13T20:52:31.458Z,3.00
2023-05-13T20:54:58.861Z,2.50
2023-05-13T20:57:25.601Z,3.47
2023-05-13T20:59:52.830Z,3.80
2023-05-13T21:02:19.474Z,2.80
2023-05-13T21:04:46.226Z,3.10
2023-05-13T21:07:12.960Z,2.63
2023-05-13T21:09:39.815Z,2.97
2023-05-13T21:12:06.936Z,3.10
2023-05-13T21:14:33.529Z,3.60
2023-05-13T21:17:03.096Z,3.20
2023-05-13T21:19:30.485Z,3.20
2023-05-13T21:21:57.675Z,3.10
2023-05-13T21:24:24.366Z,2.97
2023-05-13T21:26:50.973Z,3.37
2023-05-13T21:29:19.114Z,3.70
2023-05-13T21:31:47.066Z,3.43
2023-05-13T21:34:14.052Z,2.90
2023-05-13T21:36:40.975Z,3.57
2023-05-13T21:39:10.155Z,3.07
2023-05-13T21:41:37.112Z,3.20
2023-05-13T21:44:03.941Z,3.30
2023-05-13T21:46:30.581Z,4.17
2023-05-13T21:48:59.190Z,4.37
2023-05-13T21:51:28.745Z,4.33
2023-05-13T21:53:55.740Z,4.60
2023-05-13T21:56:22.272Z,5.10
2023-05-13T21:58:49.918Z,3.73
2023-05-13T22:01:16.656Z,4.10
2023-05-13T22:03:43.955Z,4.20
2023-05-13T22:06:10.518Z,5.00
2023-05-13T22:08:37.089Z,3.77
2023-05-13T22:11:03.666Z,3.43
2023-05-13T22:13:30.258Z,3.53
2023-05-13T22:15:56.871Z,3.87
2023-05-13T22:18:23.894Z,3.30
2023-05-13T22:20:51.137Z,3.40
2023-05-13T22:23:18.144Z,2.50
2023-05-13T22:25:44.705Z,3.87
2023-05-13T22:28:11.507Z,3.60
2023-05-13T22:30:38.353Z,3.47
2023-05-13T22:33:05.149Z,3.50
2023-05-13T22:35:36.097Z,4.33
2023-05-13T22:38:04.139Z,3.37
2023-05-13T22:40:31.354Z,3.90
2023-05-13T22:42:57.928Z,3.87
2023-05-13T22:45:26.595Z,3.60
2023-05-13T22:47:53.238Z,3.80
2023-05-13T22:50:20.169Z,3.40
2023-05-13T22:52:46.719Z,3.10
2023-05-13T22:55:13.798Z,3.63
2023-05-13T22:57:40.484Z,3.73
2023-05-13T23:00:07.682Z,3.60
2023-05-13T23:02:34.271Z,4.10
2023-05-13T23:05:01.433Z,4.00
2023-05-13T23:07:28.426Z,4.30
2023-05-13T23:09:55.026Z,3.83
2023-05-13T23:12:22.228Z,4.70
2023-05-13T23:14:48.802Z,3.70
2023-05-13T23:17:15.293Z,4.33
2023-05-13T23:19:42.263Z,3.90
2023-05-13T23:22:08.900Z,3.90
2023-05-13T23:24:35.561Z,3.60
2023-05-13T23:27:02.422Z,3.70
2023-05-13T23:29:29.053Z,3.63
2023-05-13T23:31:55.714Z,3.50
2023-05-13T23:34:22.291Z,4.20
2023-05-13T23:36:49.175Z,4.20
2023-05-13T23:39:15.798Z,3.67
2023-05-13T23:41:42.738Z,3.73
2023-05-13T23:44:09.450Z,4.30
2023-05-13T23:46:36.407Z,3.77
2023-05-13T23:49:03.236Z,3.90
2023-05-13T23:51:29.820Z,3.53
2023-05-13T23:53:56.443Z,3.83
2023-05-13T23:56:23.346Z,3.47
2023-05-13T23:58:50.073Z,3.87
